sensor_id;sensor_type;location;lat;lon;timestamp;P1;durP1;ratioP1;P2;durP2;ratioP2
22502;SDS011;11418;48.118;9.992;2023-02-28T00:01:44;3.53;;;1.45;;
22502;SDS011;11418;48.118;9.992;2023-02-28T00:05:45;1.77;;;0.98;;
22502;SDS011;11418;48.118;9.992;2023-02-28T00:09:46;1.50;;;1.35;;
22502;SDS011;11418;48.118;9.992;2023-02-28T00:13:46;2.85;;;1.60;;
22502;SDS011;11418;48.118;9.992;2023-02-28T00:17:47;1.33;;;0.85;;
22502;SDS011;11418;48.118;9.992;2023-02-28T00:21:48;0.70;;;0.68;;
22502;SDS011;11418;48.118;9.992;2023-02-28T00:25:49;1.45;;;0.93;;
22502;SDS011;11418;48.118;9.992;2023-02-28T00:29:50;0.30;;;0.30;;
22502;SDS011;11418;48.118;9.992;2023-02-28T00:33:51;1.77;;;1.33;;
22502;SDS011;11418;48.118;9.992;2023-02-28T00:37:51;0.60;;;0.47;;
22502;SDS011;11418;48.118;9.992;2023-02-28T00:41:52;1.13;;;0.90;;
22502;SDS011;11418;48.118;9.992;2023-02-28T00:45:52;0.30;;;0.30;;
22502;SDS011;11418;48.118;9.992;2023-02-28T00:49:53;2.30;;;1.10;;
22502;SDS011;11418;48.118;9.992;2023-02-28T00:53:53;0.30;;;0.30;;
22502;SDS011;11418;48.118;9.992;2023-02-28T00:57:54;1.60;;;1.17;;
22502;SDS011;11418;48.118;9.992;2023-02-28T01:01:55;2.38;;;1.00;;
22502;SDS011;11418;48.118;9.992;2023-02-28T01:05:55;1.20;;;0.65;;
22502;SDS011;11418;48.118;9.992;2023-02-28T01:09:56;2.55;;;1.38;;
22502;SDS011;11418;48.118;9.992;2023-02-28T01:13:56;1.85;;;0.95;;
22502;SDS011;11418;48.118;9.992;2023-02-28T01:17:58;1.98;;;1.17;;
22502;SDS011;11418;48.118;9.992;2023-02-28T01:22:02;2.15;;;1.27;;
22502;SDS011;11418;48.118;9.992;2023-02-28T01:26:05;1.25;;;0.88;;
22502;SDS011;11418;48.118;9.992;2023-02-28T01:30:13;2.33;;;1.13;;
22502;SDS011;11418;48.118;9.992;2023-02-28T01:34:14;1.35;;;0.90;;
22502;SDS011;11418;48.118;9.992;2023-02-28T01:38:15;1.33;;;0.73;;
22502;SDS011;11418;48.118;9.992;2023-02-28T01:42:15;6.50;;;1.08;;
22502;SDS011;11418;48.118;9.992;2023-02-28T01:46:16;2.47;;;1.33;;
22502;SDS011;11418;48.118;9.992;2023-02-28T01:50:18;3.28;;;1.48;;
22502;SDS011;11418;48.118;9.992;2023-02-28T01:54:22;0.80;;;0.80;;
22502;SDS011;11418;48.118;9.992;2023-02-28T01:58:26;1.50;;;1.05;;
22502;SDS011;11418;48.118;9.992;2023-02-28T02:02:27;3.35;;;1.55;;
22502;SDS011;11418;48.118;9.992;2023-02-28T02:06:36;1.85;;;0.70;;
22502;SDS011;11418;48.118;9.992;2023-02-28T02:10:53;1.65;;;1.40;;
22502;SDS011;11418;48.118;9.992;2023-02-28T02:15:13;3.15;;;0.98;;
22502;SDS011;11418;48.118;9.992;2023-02-28T02:36:50;0.80;;;0.70;;
22502;SDS011;11418;48.118;9.992;2023-02-28T02:41:33;2.47;;;1.25;;
22502;SDS011;11418;48.118;9.992;2023-02-28T02:45:36;2.05;;;1.13;;
22502;SDS011;11418;48.118;9.992;2023-02-28T02:49:45;1.63;;;0.88;;
22502;SDS011;11418;48.118;9.992;2023-02-28T02:53:54;3.88;;;1.98;;
22502;SDS011;11418;48.118;9.992;2023-02-28T02:58:08;6.07;;;1.95;;
22502;SDS011;11418;48.118;9.992;2023-02-28T03:02:14;2.88;;;1.88;;
22502;SDS011;11418;48.118;9.992;2023-02-28T03:06:17;3.90;;;2.08;;
22502;SDS011;11418;48.118;9.992;2023-02-28T03:10:34;3.95;;;1.85;;
22502;SDS011;11418;48.118;9.992;2023-02-28T03:14:55;3.33;;;2.03;;
22502;SDS011;11418;48.118;9.992;2023-02-28T03:23:31;3.08;;;2.20;;
22502;SDS011;11418;48.118;9.992;2023-02-28T03:31:55;1.92;;;1.13;;
22502;SDS011;11418;48.118;9.992;2023-02-28T03:36:22;6.03;;;2.42;;
22502;SDS011;11418;48.118;9.992;2023-02-28T03:40:46;2.65;;;1.60;;
22502;SDS011;11418;48.118;9.992;2023-02-28T03:45:04;12.25;;;2.45;;
22502;SDS011;11418;48.118;9.992;2023-02-28T03:49:15;2.30;;;1.60;;
22502;SDS011;11418;48.118;9.992;2023-02-28T03:53:35;4.68;;;1.40;;
22502;SDS011;11418;48.118;9.992;2023-02-28T04:01:45;3.17;;;1.67;;
22502;SDS011;11418;48.118;9.992;2023-02-28T04:05:52;3.13;;;1.35;;
22502;SDS011;11418;48.118;9.992;2023-02-28T04:09:54;3.63;;;1.73;;
22502;SDS011;11418;48.118;9.992;2023-02-28T04:13:55;1.05;;;0.90;;
22502;SDS011;11418;48.118;9.992;2023-02-28T04:17:55;2.88;;;1.40;;
22502;SDS011;11418;48.118;9.992;2023-02-28T04:21:56;1.65;;;1.45;;
22502;SDS011;11418;48.118;9.992;2023-02-28T04:25:56;3.08;;;1.48;;
22502;SDS011;11418;48.118;9.992;2023-02-28T04:29:57;2.22;;;1.55;;
22502;SDS011;11418;48.118;9.992;2023-02-28T04:33:57;4.88;;;2.42;;
22502;SDS011;11418;48.118;9.992;2023-02-28T04:37:58;5.22;;;2.10;;
22502;SDS011;11418;48.118;9.992;2023-02-28T04:41:59;3.42;;;1.63;;
22502;SDS011;11418;48.118;9.992;2023-02-28T04:46:00;3.83;;;2.28;;
22502;SDS011;11418;48.118;9.992;2023-02-28T04:50:03;2.53;;;1.77;;
22502;SDS011;11418;48.118;9.992;2023-02-28T04:54:04;4.57;;;2.75;;
22502;SDS011;11418;48.118;9.992;2023-02-28T04:58:04;4.70;;;3.13;;
22502;SDS011;11418;48.118;9.992;2023-02-28T05:02:05;5.70;;;2.92;;
22502;SDS011;11418;48.118;9.992;2023-02-28T05:06:07;6.55;;;3.67;;
22502;SDS011;11418;48.118;9.992;2023-02-28T05:10:08;3.15;;;2.60;;
22502;SDS011;11418;48.118;9.992;2023-02-28T05:14:13;3.47;;;2.22;;
22502;SDS011;11418;48.118;9.992;2023-02-28T05:18:14;3.53;;;2.13;;
22502;SDS011;11418;48.118;9.992;2023-02-28T05:22:14;3.55;;;1.48;;
22502;SDS011;11418;48.118;9.992;2023-02-28T05:26:18;5.55;;;3.25;;
22502;SDS011;11418;48.118;9.992;2023-02-28T05:30:19;6.20;;;2.67;;
22502;SDS011;11418;48.118;9.992;2023-02-28T05:34:20;4.90;;;2.55;;
22502;SDS011;11418;48.118;9.992;2023-02-28T05:38:20;4.70;;;1.45;;
22502;SDS011;11418;48.118;9.992;2023-02-28T05:42:21;5.13;;;3.30;;
22502;SDS011;11418;48.118;9.992;2023-02-28T05:46:21;6.43;;;2.38;;
22502;SDS011;11418;48.118;9.992;2023-02-28T05:50:22;6.55;;;3.30;;
22502;SDS011;11418;48.118;9.992;2023-02-28T05:54:22;5.40;;;2.75;;
22502;SDS011;11418;48.118;9.992;2023-02-28T05:58:23;3.88;;;2.22;;
22502;SDS011;11418;48.118;9.992;2023-02-28T06:02:28;4.70;;;3.10;;
22502;SDS011;11418;48.118;9.992;2023-02-28T06:06:29;1.83;;;1.20;;
22502;SDS011;11418;48.118;9.992;2023-02-28T06:10:30;7.55;;;4.50;;
22502;SDS011;11418;48.118;9.992;2023-02-28T06:14:31;1.45;;;1.33;;
22502;SDS011;11418;48.118;9.992;2023-02-28T06:18:32;8.48;;;3.42;;
22502;SDS011;11418;48.118;9.992;2023-02-28T06:22:34;3.67;;;2.15;;
22502;SDS011;11418;48.118;9.992;2023-02-28T06:26:37;3.38;;;2.20;;
22502;SDS011;11418;48.118;9.992;2023-02-28T06:30:38;9.95;;;4.00;;
22502;SDS011;11418;48.118;9.992;2023-02-28T06:34:39;8.88;;;5.20;;
22502;SDS011;11418;48.118;9.992;2023-02-28T06:38:39;5.07;;;1.75;;
22502;SDS011;11418;48.118;9.992;2023-02-28T06:42:41;5.75;;;2.10;;
22502;SDS011;11418;48.118;9.992;2023-02-28T06:46:42;6.28;;;2.78;;
22502;SDS011;11418;48.118;9.992;2023-02-28T06:50:43;6.55;;;2.70;;
22502;SDS011;11418;48.118;9.992;2023-02-28T06:54:44;6.68;;;3.83;;
22502;SDS011;11418;48.118;9.992;2023-02-28T06:58:48;1.23;;;1.13;;
22502;SDS011;11418;48.118;9.992;2023-02-28T07:02:50;7.38;;;3.15;;
22502;SDS011;11418;48.118;9.992;2023-02-28T07:06:51;7.25;;;4.97;;
22502;SDS011;11418;48.118;9.992;2023-02-28T07:10:52;4.10;;;2.20;;
22502;SDS011;11418;48.118;9.992;2023-02-28T07:14:53;7.57;;;3.40;;
22502;SDS011;11418;48.118;9.992;2023-02-28T07:18:55;6.95;;;3.47;;
22502;SDS011;11418;48.118;9.992;2023-02-28T07:22:56;4.30;;;2.58;;
22502;SDS011;11418;48.118;9.992;2023-02-28T07:26:56;4.22;;;2.95;;
22502;SDS011;11418;48.118;9.992;2023-02-28T07:31:02;6.72;;;3.55;;
22502;SDS011;11418;48.118;9.992;2023-02-28T07:35:05;5.93;;;2.97;;
22502;SDS011;11418;48.118;9.992;2023-02-28T07:39:05;7.00;;;2.65;;
22502;SDS011;11418;48.118;9.992;2023-02-28T07:43:06;7.88;;;4.60;;
22502;SDS011;11418;48.118;9.992;2023-02-28T07:47:07;6.70;;;4.03;;
22502;SDS011;11418;48.118;9.992;2023-02-28T07:51:08;9.05;;;3.25;;
22502;SDS011;11418;48.118;9.992;2023-02-28T07:55:09;7.45;;;3.55;;
22502;SDS011;11418;48.118;9.992;2023-02-28T07:59:10;6.05;;;3.85;;
22502;SDS011;11418;48.118;9.992;2023-02-28T08:03:12;6.82;;;3.50;;
22502;SDS011;11418;48.118;9.992;2023-02-28T08:07:13;2.58;;;1.88;;
22502;SDS011;11418;48.118;9.992;2023-02-28T08:11:14;7.75;;;3.80;;
22502;SDS011;11418;48.118;9.992;2023-02-28T08:15:14;7.38;;;3.13;;
22502;SDS011;11418;48.118;9.992;2023-02-28T08:19:15;10.45;;;3.78;;
22502;SDS011;11418;48.118;9.992;2023-02-28T08:23:16;11.35;;;5.55;;
22502;SDS011;11418;48.118;9.992;2023-02-28T08:27:16;10.15;;;3.95;;
22502;SDS011;11418;48.118;9.992;2023-02-28T08:31:17;8.32;;;4.50;;
22502;SDS011;11418;48.118;9.992;2023-02-28T08:35:19;8.02;;;3.47;;
22502;SDS011;11418;48.118;9.992;2023-02-28T08:39:19;8.73;;;4.55;;
22502;SDS011;11418;48.118;9.992;2023-02-28T08:43:20;12.55;;;5.10;;
22502;SDS011;11418;48.118;9.992;2023-02-28T08:47:20;2.90;;;1.27;;
22502;SDS011;11418;48.118;9.992;2023-02-28T08:51:21;7.45;;;3.78;;
22502;SDS011;11418;48.118;9.992;2023-02-28T08:55:27;5.05;;;2.83;;
22502;SDS011;11418;48.118;9.992;2023-02-28T08:59:27;5.60;;;3.20;;
22502;SDS011;11418;48.118;9.992;2023-02-28T09:03:28;5.43;;;3.28;;
22502;SDS011;11418;48.118;9.992;2023-02-28T09:07:29;10.48;;;5.75;;
22502;SDS011;11418;48.118;9.992;2023-02-28T09:11:29;8.50;;;3.70;;
22502;SDS011;11418;48.118;9.992;2023-02-28T09:15:30;5.50;;;2.83;;
22502;SDS011;11418;48.118;9.992;2023-02-28T09:19:30;6.90;;;3.65;;
22502;SDS011;11418;48.118;9.992;2023-02-28T09:23:31;2.50;;;1.80;;
22502;SDS011;11418;48.118;9.992;2023-02-28T09:27:32;8.95;;;4.13;;
22502;SDS011;11418;48.118;9.992;2023-02-28T09:31:32;8.05;;;4.55;;
22502;SDS011;11418;48.118;9.992;2023-02-28T09:35:33;8.50;;;5.43;;
22502;SDS011;11418;48.118;9.992;2023-02-28T09:39:33;5.70;;;3.42;;
22502;SDS011;11418;48.118;9.992;2023-02-28T09:43:35;8.45;;;4.70;;
22502;SDS011;11418;48.118;9.992;2023-02-28T09:47:42;12.57;;;4.70;;
22502;SDS011;11418;48.118;9.992;2023-02-28T09:56:11;7.22;;;2.95;;
22502;SDS011;11418;48.118;9.992;2023-02-28T10:00:19;7.38;;;4.13;;
22502;SDS011;11418;48.118;9.992;2023-02-28T10:13:00;6.30;;;3.75;;
22502;SDS011;11418;48.118;9.992;2023-02-28T10:17:08;9.60;;;4.78;;
22502;SDS011;11418;48.118;9.992;2023-02-28T10:21:15;9.47;;;4.00;;
22502;SDS011;11418;48.118;9.992;2023-02-28T10:25:28;7.75;;;4.63;;
22502;SDS011;11418;48.118;9.992;2023-02-28T10:29:31;9.23;;;4.88;;
22502;SDS011;11418;48.118;9.992;2023-02-28T10:33:33;12.75;;;5.05;;
22502;SDS011;11418;48.118;9.992;2023-02-28T10:37:38;8.90;;;4.30;;
22502;SDS011;11418;48.118;9.992;2023-02-28T10:41:42;13.98;;;6.28;;
22502;SDS011;11418;48.118;9.992;2023-02-28T10:49:52;6.78;;;3.40;;
22502;SDS011;11418;48.118;9.992;2023-02-28T10:53:54;7.88;;;4.10;;
22502;SDS011;11418;48.118;9.992;2023-02-28T10:57:55;9.57;;;5.35;;
22502;SDS011;11418;48.118;9.992;2023-02-28T11:01:56;10.75;;;4.45;;
22502;SDS011;11418;48.118;9.992;2023-02-28T11:05:57;10.63;;;4.50;;
22502;SDS011;11418;48.118;9.992;2023-02-28T11:09:58;10.00;;;5.07;;
22502;SDS011;11418;48.118;9.992;2023-02-28T11:14:03;10.00;;;5.63;;
22502;SDS011;11418;48.118;9.992;2023-02-28T11:22:20;11.40;;;5.10;;
22502;SDS011;11418;48.118;9.992;2023-02-28T11:26:41;5.57;;;3.30;;
22502;SDS011;11418;48.118;9.992;2023-02-28T11:30:43;5.55;;;2.13;;
22502;SDS011;11418;48.118;9.992;2023-02-28T11:34:44;7.63;;;4.95;;
22502;SDS011;11418;48.118;9.992;2023-02-28T11:38:46;6.72;;;3.97;;
22502;SDS011;11418;48.118;9.992;2023-02-28T11:42:57;8.20;;;4.72;;
22502;SDS011;11418;48.118;9.992;2023-02-28T11:51:35;10.90;;;6.07;;
22502;SDS011;11418;48.118;9.992;2023-02-28T11:55:52;7.78;;;3.75;;
22502;SDS011;11418;48.118;9.992;2023-02-28T12:00:19;7.43;;;3.72;;
22502;SDS011;11418;48.118;9.992;2023-02-28T12:04:45;7.35;;;4.35;;
22502;SDS011;11418;48.118;9.992;2023-02-28T12:09:52;9.85;;;5.45;;
22502;SDS011;11418;48.118;9.992;2023-02-28T12:18:35;7.53;;;4.38;;
22502;SDS011;11418;48.118;9.992;2023-02-28T12:26:49;7.00;;;3.92;;
22502;SDS011;11418;48.118;9.992;2023-02-28T12:30:54;10.30;;;4.90;;
22502;SDS011;11418;48.118;9.992;2023-02-28T12:35:04;10.95;;;5.88;;
22502;SDS011;11418;48.118;9.992;2023-02-28T12:39:11;7.85;;;4.22;;
22502;SDS011;11418;48.118;9.992;2023-02-28T12:43:16;8.25;;;4.53;;
22502;SDS011;11418;48.118;9.992;2023-02-28T12:47:19;10.77;;;5.57;;
22502;SDS011;11418;48.118;9.992;2023-02-28T12:51:20;7.82;;;3.75;;
22502;SDS011;11418;48.118;9.992;2023-02-28T12:55:23;14.23;;;6.13;;
22502;SDS011;11418;48.118;9.992;2023-02-28T12:59:50;7.50;;;4.00;;
22502;SDS011;11418;48.118;9.992;2023-02-28T13:13:03;7.82;;;4.20;;
22502;SDS011;11418;48.118;9.992;2023-02-28T13:21:09;10.57;;;4.93;;
22502;SDS011;11418;48.118;9.992;2023-02-28T13:29:37;9.98;;;5.60;;
22502;SDS011;11418;48.118;9.992;2023-02-28T13:37:48;6.40;;;3.08;;
22502;SDS011;11418;48.118;9.992;2023-02-28T13:41:50;11.85;;;6.60;;
22502;SDS011;11418;48.118;9.992;2023-02-28T13:46:04;10.95;;;4.90;;
22502;SDS011;11418;48.118;9.992;2023-02-28T13:54:54;6.25;;;3.53;;
22502;SDS011;11418;48.118;9.992;2023-02-28T13:59:26;9.90;;;6.00;;
22502;SDS011;11418;48.118;9.992;2023-02-28T14:07:59;9.15;;;4.65;;
22502;SDS011;11418;48.118;9.992;2023-02-28T14:16:44;10.13;;;5.88;;
22502;SDS011;11418;48.118;9.992;2023-02-28T14:20:47;7.22;;;4.90;;
22502;SDS011;11418;48.118;9.992;2023-02-28T14:29:22;15.70;;;7.28;;
22502;SDS011;11418;48.118;9.992;2023-02-28T14:38:27;13.13;;;6.47;;
22502;SDS011;11418;48.118;9.992;2023-02-28T14:42:32;11.60;;;6.15;;
22502;SDS011;11418;48.118;9.992;2023-02-28T14:46:38;15.35;;;5.93;;
22502;SDS011;11418;48.118;9.992;2023-02-28T14:50:41;10.60;;;4.95;;
22502;SDS011;11418;48.118;9.992;2023-02-28T14:55:24;9.45;;;5.95;;
22502;SDS011;11418;48.118;9.992;2023-02-28T14:59:23;9.70;;;5.55;;
22502;SDS011;11418;48.118;9.992;2023-02-28T15:03:33;7.38;;;4.05;;
22502;SDS011;11418;48.118;9.992;2023-02-28T15:07:34;4.60;;;3.17;;
22502;SDS011;11418;48.118;9.992;2023-02-28T15:11:35;5.50;;;3.05;;
22502;SDS011;11418;48.118;9.992;2023-02-28T15:15:46;9.48;;;5.47;;
22502;SDS011;11418;48.118;9.992;2023-02-28T15:28:23;9.43;;;4.85;;
22502;SDS011;11418;48.118;9.992;2023-02-28T15:36:35;5.60;;;3.75;;
22502;SDS011;11418;48.118;9.992;2023-02-28T15:40:38;7.55;;;4.15;;
22502;SDS011;11418;48.118;9.992;2023-02-28T15:44:41;9.40;;;6.07;;
22502;SDS011;11418;48.118;9.992;2023-02-28T15:48:52;9.82;;;5.80;;
22502;SDS011;11418;48.118;9.992;2023-02-28T15:52:54;13.85;;;6.75;;
22502;SDS011;11418;48.118;9.992;2023-02-28T15:56:56;5.32;;;2.83;;
22502;SDS011;11418;48.118;9.992;2023-02-28T16:01:05;8.40;;;5.10;;
22502;SDS011;11418;48.118;9.992;2023-02-28T16:09:10;5.38;;;3.40;;
22502;SDS011;11418;48.118;9.992;2023-02-28T16:13:20;4.40;;;2.97;;
22502;SDS011;11418;48.118;9.992;2023-02-28T16:17:22;8.57;;;4.40;;
22502;SDS011;11418;48.118;9.992;2023-02-28T16:21:27;13.32;;;6.50;;
22502;SDS011;11418;48.118;9.992;2023-02-28T16:25:41;16.50;;;6.55;;
22502;SDS011;11418;48.118;9.992;2023-02-28T16:29:43;9.80;;;4.55;;
22502;SDS011;11418;48.118;9.992;2023-02-28T16:33:45;12.55;;;5.75;;
22502;SDS011;11418;48.118;9.992;2023-02-28T16:37:45;7.93;;;4.63;;
22502;SDS011;11418;48.118;9.992;2023-02-28T16:41:47;5.40;;;2.50;;
22502;SDS011;11418;48.118;9.992;2023-02-28T16:45:49;10.88;;;5.93;;
22502;SDS011;11418;48.118;9.992;2023-02-28T16:49:56;10.65;;;5.13;;
22502;SDS011;11418;48.118;9.992;2023-02-28T16:53:56;10.77;;;5.70;;
22502;SDS011;11418;48.118;9.992;2023-02-28T16:57:58;16.73;;;7.88;;
22502;SDS011;11418;48.118;9.992;2023-02-28T17:01:59;12.43;;;4.97;;
22502;SDS011;11418;48.118;9.992;2023-02-28T17:06:00;19.42;;;9.60;;
22502;SDS011;11418;48.118;9.992;2023-02-28T17:10:01;12.77;;;6.35;;
22502;SDS011;11418;48.118;9.992;2023-02-28T17:14:08;4.93;;;3.42;;
22502;SDS011;11418;48.118;9.992;2023-02-28T17:18:09;9.27;;;5.43;;
22502;SDS011;11418;48.118;9.992;2023-02-28T17:22:15;14.00;;;6.22;;
22502;SDS011;11418;48.118;9.992;2023-02-28T17:26:17;10.45;;;4.82;;
22502;SDS011;11418;48.118;9.992;2023-02-28T17:30:23;11.25;;;5.43;;
22502;SDS011;11418;48.118;9.992;2023-02-28T17:34:27;7.70;;;4.53;;
22502;SDS011;11418;48.118;9.992;2023-02-28T17:38:28;13.73;;;5.85;;
22502;SDS011;11418;48.118;9.992;2023-02-28T17:42:29;11.77;;;5.10;;
22502;SDS011;11418;48.118;9.992;2023-02-28T17:46:29;9.20;;;5.93;;
22502;SDS011;11418;48.118;9.992;2023-02-28T17:50:30;9.90;;;5.32;;
22502;SDS011;11418;48.118;9.992;2023-02-28T17:54:31;10.57;;;5.72;;
22502;SDS011;11418;48.118;9.992;2023-02-28T17:58:32;13.45;;;5.45;;
22502;SDS011;11418;48.118;9.992;2023-02-28T18:02:32;12.63;;;5.78;;
22502;SDS011;11418;48.118;9.992;2023-02-28T18:06:35;8.90;;;4.80;;
22502;SDS011;11418;48.118;9.992;2023-02-28T18:10:46;10.15;;;5.22;;
22502;SDS011;11418;48.118;9.992;2023-02-28T18:14:46;12.13;;;5.85;;
22502;SDS011;11418;48.118;9.992;2023-02-28T18:18:47;11.82;;;4.80;;
22502;SDS011;11418;48.118;9.992;2023-02-28T18:22:48;11.02;;;4.75;;
22502;SDS011;11418;48.118;9.992;2023-02-28T18:26:49;11.02;;;5.82;;
22502;SDS011;11418;48.118;9.992;2023-02-28T18:30:50;10.40;;;4.75;;
22502;SDS011;11418;48.118;9.992;2023-02-28T18:34:51;9.25;;;5.10;;
22502;SDS011;11418;48.118;9.992;2023-02-28T18:38:51;15.57;;;6.15;;
22502;SDS011;11418;48.118;9.992;2023-02-28T18:42:53;10.82;;;4.97;;
22502;SDS011;11418;48.118;9.992;2023-02-28T18:46:53;10.05;;;5.50;;
22502;SDS011;11418;48.118;9.992;2023-02-28T18:50:54;8.48;;;4.47;;
22502;SDS011;11418;48.118;9.992;2023-02-28T18:54:54;12.43;;;5.22;;
22502;SDS011;11418;48.118;9.992;2023-02-28T18:58:55;27.13;;;10.50;;
22502;SDS011;11418;48.118;9.992;2023-02-28T19:02:55;22.67;;;10.20;;
22502;SDS011;11418;48.118;9.992;2023-02-28T19:06:56;16.90;;;9.45;;
22502;SDS011;11418;48.118;9.992;2023-02-28T19:10:56;15.68;;;8.82;;
22502;SDS011;11418;48.118;9.992;2023-02-28T19:14:57;20.30;;;9.90;;
22502;SDS011;11418;48.118;9.992;2023-02-28T19:18:58;19.45;;;9.70;;
22502;SDS011;11418;48.118;9.992;2023-02-28T19:22:58;20.38;;;9.88;;
22502;SDS011;11418;48.118;9.992;2023-02-28T19:26:59;18.40;;;10.07;;
22502;SDS011;11418;48.118;9.992;2023-02-28T19:30:59;18.85;;;9.52;;
22502;SDS011;11418;48.118;9.992;2023-02-28T19:35:00;18.40;;;9.07;;
22502;SDS011;11418;48.118;9.992;2023-02-28T19:39:01;24.88;;;10.25;;
22502;SDS011;11418;48.118;9.992;2023-02-28T19:43:02;15.98;;;7.78;;
22502;SDS011;11418;48.118;9.992;2023-02-28T19:47:03;15.98;;;8.15;;
22502;SDS011;11418;48.118;9.992;2023-02-28T19:51:05;17.05;;;7.63;;
22502;SDS011;11418;48.118;9.992;2023-02-28T19:55:08;14.93;;;7.03;;
22502;SDS011;11418;48.118;9.992;2023-02-28T19:59:08;21.98;;;8.25;;
22502;SDS011;11418;48.118;9.992;2023-02-28T20:03:09;16.60;;;8.00;;
22502;SDS011;11418;48.118;9.992;2023-02-28T20:07:10;11.90;;;6.75;;
22502;SDS011;11418;48.118;9.992;2023-02-28T20:11:11;15.73;;;7.10;;
22502;SDS011;11418;48.118;9.992;2023-02-28T20:15:14;15.68;;;7.60;;
22502;SDS011;11418;48.118;9.992;2023-02-28T20:19:15;16.50;;;7.63;;
22502;SDS011;11418;48.118;9.992;2023-02-28T20:23:17;12.20;;;6.82;;
22502;SDS011;11418;48.118;9.992;2023-02-28T20:27:17;15.35;;;6.82;;
22502;SDS011;11418;48.118;9.992;2023-02-28T20:31:19;15.05;;;7.53;;
22502;SDS011;11418;48.118;9.992;2023-02-28T20:35:24;15.55;;;7.03;;
22502;SDS011;11418;48.118;9.992;2023-02-28T20:39:24;10.43;;;5.53;;
22502;SDS011;11418;48.118;9.992;2023-02-28T20:43:25;11.77;;;5.97;;
22502;SDS011;11418;48.118;9.992;2023-02-28T20:47:26;13.50;;;6.25;;
22502;SDS011;11418;48.118;9.992;2023-02-28T20:51:27;12.98;;;6.63;;
22502;SDS011;11418;48.118;9.992;2023-02-28T20:55:27;8.85;;;5.60;;
22502;SDS011;11418;48.118;9.992;2023-02-28T20:59:28;11.23;;;5.75;;
22502;SDS011;11418;48.118;9.992;2023-02-28T21:03:28;10.30;;;5.28;;
22502;SDS011;11418;48.118;9.992;2023-02-28T21:07:30;8.60;;;4.68;;
22502;SDS011;11418;48.118;9.992;2023-02-28T21:11:31;10.07;;;4.75;;
22502;SDS011;11418;48.118;9.992;2023-02-28T21:15:36;9.30;;;5.20;;
22502;SDS011;11418;48.118;9.992;2023-02-28T21:19:40;11.07;;;5.20;;
22502;SDS011;11418;48.118;9.992;2023-02-28T21:23:41;19.55;;;5.68;;
22502;SDS011;11418;48.118;9.992;2023-02-28T21:27:44;12.15;;;5.28;;
22502;SDS011;11418;48.118;9.992;2023-02-28T21:31:44;12.40;;;5.45;;
22502;SDS011;11418;48.118;9.992;2023-02-28T21:35:45;11.10;;;5.32;;
22502;SDS011;11418;48.118;9.992;2023-02-28T21:39:46;13.50;;;5.43;;
22502;SDS011;11418;48.118;9.992;2023-02-28T21:43:47;13.77;;;4.53;;
22502;SDS011;11418;48.118;9.992;2023-02-28T21:47:47;10.32;;;5.50;;
22502;SDS011;11418;48.118;9.992;2023-02-28T21:51:48;1.67;;;1.58;;
22502;SDS011;11418;48.118;9.992;2023-02-28T21:55:48;7.97;;;4.15;;
22502;SDS011;11418;48.118;9.992;2023-02-28T21:59:49;10.40;;;4.82;;
22502;SDS011;11418;48.118;9.992;2023-02-28T22:03:50;10.07;;;4.18;;
22502;SDS011;11418;48.118;9.992;2023-02-28T22:07:51;7.85;;;3.22;;
22502;SDS011;11418;48.118;9.992;2023-02-28T22:11:52;9.52;;;4.68;;
22502;SDS011;11418;48.118;9.992;2023-02-28T22:15:53;13.05;;;5.50;;
22502;SDS011;11418;48.118;9.992;2023-02-28T22:19:53;4.20;;;2.45;;
22502;SDS011;11418;48.118;9.992;2023-02-28T22:23:58;12.00;;;5.28;;
22502;SDS011;11418;48.118;9.992;2023-02-28T22:27:59;12.45;;;6.60;;
22502;SDS011;11418;48.118;9.992;2023-02-28T22:31:59;6.97;;;3.30;;
22502;SDS011;11418;48.118;9.992;2023-02-28T22:36:03;8.05;;;4.65;;
22502;SDS011;11418;48.118;9.992;2023-02-28T22:40:04;11.35;;;4.53;;
22502;SDS011;11418;48.118;9.992;2023-02-28T22:44:05;8.57;;;4.43;;
22502;SDS011;11418;48.118;9.992;2023-02-28T22:48:06;10.25;;;5.65;;
22502;SDS011;11418;48.118;9.992;2023-02-28T22:52:08;4.70;;;2.63;;
22502;SDS011;11418;48.118;9.992;2023-02-28T22:56:10;7.05;;;4.10;;
22502;SDS011;11418;48.118;9.992;2023-02-28T23:00:11;8.82;;;4.50;;
22502;SDS011;11418;48.118;9.992;2023-02-28T23:04:14;4.07;;;1.90;;
22502;SDS011;11418;48.118;9.992;2023-02-28T23:08:14;13.73;;;5.78;;
22502;SDS011;11418;48.118;9.992;2023-02-28T23:12:16;8.02;;;4.20;;
22502;SDS011;11418;48.118;9.992;2023-02-28T23:16:17;11.13;;;5.18;;
22502;SDS011;11418;48.118;9.992;2023-02-28T23:20:18;10.75;;;5.50;;
22502;SDS011;11418;48.118;9.992;2023-02-28T23:24:20;11.07;;;5.15;;
22502;SDS011;11418;48.118;9.992;2023-02-28T23:28:22;14.18;;;7.05;;
22502;SDS011;11418;48.118;9.992;2023-02-28T23:32:23;7.30;;;3.35;;
22502;SDS011;11418;48.118;9.992;2023-02-28T23:36:24;13.60;;;5.15;;
22502;SDS011;11418;48.118;9.992;2023-02-28T23:40:25;13.40;;;7.07;;
22502;SDS011;11418;48.118;9.992;2023-02-28T23:44:26;3.22;;;2.35;;
22502;SDS011;11418;48.118;9.992;2023-02-28T23:48:26;8.90;;;4.18;;
22502;SDS011;11418;48.118;9.992;2023-02-28T23:52:27;3.58;;;2.28;;
22502;SDS011;11418;48.118;9.992;2023-02-28T23:56:28;11.40;;;5.80;;
